createdAt,value
2022-12-11T00:00:23.779Z,6.20
2022-12-11T00:03:15.675Z,6.21
2022-12-11T00:05:43.452Z,6.18
2022-12-11T00:08:10.295Z,6.19
2022-12-11T00:10:38.033Z,6.18
2022-12-11T00:13:05.238Z,6.20
2022-12-11T00:15:32.319Z,6.19
2022-12-11T00:17:59.091Z,6.17
2022-12-11T00:20:26.070Z,6.18
2022-12-11T00:22:52.786Z,6.18
2022-12-11T00:25:19.838Z,6.23
2022-12-11T00:27:47.345Z,6.16
2022-12-11T00:30:15.166Z,6.20
2022-12-11T00:32:43.175Z,6.13
2022-12-11T00:35:11.112Z,6.13
2022-12-11T00:37:38.125Z,6.13
2022-12-11T00:40:05.745Z,6.15
2022-12-11T00:42:32.454Z,6.06
2022-12-11T00:44:59.491Z,6.03
2022-12-11T00:47:26.285Z,6.13
2022-12-11T00:49:53.285Z,6.09
2022-12-11T00:52:20.045Z,6.10
2022-12-11T00:54:47.102Z,6.14
2022-12-11T00:57:13.822Z,6.14
2022-12-11T00:59:40.871Z,6.11
2022-12-11T01:02:07.626Z,6.10
2022-12-11T01:04:36.040Z,6.11
2022-12-11T01:07:02.821Z,6.16
2022-12-11T01:09:48.685Z,6.21
2022-12-11T01:12:15.428Z,6.21
2022-12-11T01:14:42.448Z,6.20
2022-12-11T01:17:09.175Z,6.16
2022-12-11T01:19:36.345Z,6.21
2022-12-11T01:22:03.085Z,6.20
2022-12-11T01:24:30.117Z,6.21
2022-12-11T01:26:56.865Z,6.11
2022-12-11T01:29:23.921Z,6.20
2022-12-11T01:31:50.656Z,6.18
2022-12-11T01:34:17.648Z,6.17
2022-12-11T01:36:44.561Z,6.11
2022-12-11T01:39:11.592Z,6.17
2022-12-11T01:41:38.333Z,6.15
2022-12-11T01:44:06.356Z,6.13
2022-12-11T01:46:34.860Z,6.13
2022-12-11T01:49:03.912Z,6.11
2022-12-11T01:51:31.957Z,6.11
2022-12-11T01:54:10.889Z,6.09
2022-12-11T01:56:38.059Z,6.09
2022-12-11T01:59:07.111Z,6.07
2022-12-11T02:01:43.376Z,6.08
2022-12-11T02:04:11.066Z,6.09
2022-12-11T02:06:40.307Z,6.07
2022-12-11T02:09:13.816Z,6.09
2022-12-11T02:12:11.656Z,6.09
2022-12-11T02:14:40.112Z,6.03
2022-12-11T02:17:12.032Z,6.07
2022-12-11T02:20:07.309Z,6.01
2022-12-11T02:22:58.435Z,6.06
2022-12-11T02:25:25.443Z,6.10
2022-12-11T02:28:17.272Z,6.10
2022-12-11T02:31:06.437Z,6.10
2022-12-11T02:33:37.244Z,6.02
2022-12-11T02:36:05.114Z,6.06
2022-12-11T02:38:33.912Z,6.05
2022-12-11T02:41:01.006Z,6.07
2022-12-11T02:43:29.336Z,6.05
2022-12-11T02:45:56.419Z,6.06
2022-12-11T02:48:23.190Z,6.02
2022-12-11T02:50:51.538Z,6.04
2022-12-11T02:53:20.091Z,6.03
2022-12-11T02:55:48.107Z,6.05
2022-12-11T02:58:17.904Z,6.06
2022-12-11T03:00:45.387Z,6.07
2022-12-11T03:03:12.495Z,6.04
2022-12-11T03:05:39.909Z,6.07
2022-12-11T03:08:06.727Z,6.06
2022-12-11T03:10:33.758Z,6.06
2022-12-11T03:13:00.515Z,6.01
2022-12-11T03:15:39.851Z,6.00
2022-12-11T03:18:21.216Z,6.01
2022-12-11T03:20:54.455Z,6.02
2022-12-11T03:23:46.058Z,5.95
2022-12-11T03:26:13.819Z,5.93
2022-12-11T03:28:40.534Z,5.97
2022-12-11T03:31:16.955Z,5.97
2022-12-11T03:33:44.866Z,6.00
2022-12-11T03:36:14.579Z,5.99
2022-12-11T03:38:49.345Z,5.97
2022-12-11T03:41:17.246Z,5.96
2022-12-11T03:43:44.158Z,5.92
2022-12-11T03:46:14.613Z,5.90
2022-12-11T03:48:42.358Z,5.90
2022-12-11T03:51:10.422Z,5.93
2022-12-11T03:53:37.343Z,5.96
2022-12-11T03:56:04.803Z,5.94
2022-12-11T03:58:31.876Z,5.94
2022-12-11T04:00:58.907Z,5.95
2022-12-11T04:03:25.843Z,5.93
2022-12-11T04:05:54.442Z,5.88
2022-12-11T04:08:21.542Z,5.89
2022-12-11T04:11:09.285Z,5.88
2022-12-11T04:13:36.500Z,5.87
2022-12-11T04:16:03.760Z,5.84
2022-12-11T04:18:49.159Z,5.82
2022-12-11T04:21:39.241Z,5.88
2022-12-11T04:24:16.146Z,5.86
2022-12-11T04:26:46.799Z,5.87
2022-12-11T04:29:14.084Z,5.89
2022-12-11T04:31:41.190Z,5.90
2022-12-11T04:34:07.950Z,5.87
2022-12-11T04:36:35.719Z,5.88
2022-12-11T04:39:02.507Z,5.89
2022-12-11T04:41:29.507Z,5.82
2022-12-11T04:43:56.299Z,5.83
2022-12-11T04:46:23.960Z,5.84
2022-12-11T04:48:57.018Z,5.82
2022-12-11T04:51:24.790Z,5.88
2022-12-11T04:53:51.580Z,5.87
2022-12-11T04:56:18.885Z,5.84
2022-12-11T04:58:46.076Z,5.82
2022-12-11T05:01:17.885Z,5.81
2022-12-11T05:03:44.782Z,5.81
2022-12-11T05:06:12.065Z,5.78
2022-12-11T05:08:40.343Z,5.79
2022-12-11T05:11:09.882Z,5.79
2022-12-11T05:13:36.691Z,5.80
2022-12-11T05:16:05.565Z,5.82
2022-12-11T05:18:32.346Z,5.85
2022-12-11T05:21:04.938Z,5.85
2022-12-11T05:23:31.851Z,5.86
2022-12-11T05:26:03.576Z,5.88
2022-12-11T05:28:31.639Z,5.88
2022-12-11T05:31:04.303Z,5.89
2022-12-11T05:33:31.266Z,5.85
2022-12-11T05:35:58.320Z,5.86
2022-12-11T05:38:25.432Z,5.83
2022-12-11T05:40:59.664Z,5.75
2022-12-11T05:43:26.621Z,5.80
2022-12-11T05:45:53.860Z,5.82
2022-12-11T05:48:20.557Z,5.85
2022-12-11T05:51:00.366Z,5.83
2022-12-11T05:53:27.350Z,5.84
2022-12-11T05:55:54.453Z,5.82
2022-12-11T05:58:21.405Z,5.86
2022-12-11T06:00:48.480Z,5.83
2022-12-11T06:03:15.323Z,5.77
2022-12-11T06:05:42.573Z,5.78
2022-12-11T06:08:09.438Z,5.75
2022-12-11T06:10:36.557Z,5.71
2022-12-11T06:13:03.471Z,5.74
2022-12-11T06:15:30.493Z,5.76
2022-12-11T06:17:57.194Z,5.79
2022-12-11T06:20:24.263Z,5.79
2022-12-11T06:22:50.992Z,5.75
2022-12-11T06:25:18.164Z,5.71
2022-12-11T06:27:44.928Z,5.65
2022-12-11T06:30:12.334Z,5.67
2022-12-11T06:32:39.085Z,5.71
2022-12-11T06:35:06.508Z,5.64
2022-12-11T06:37:35.047Z,5.66
2022-12-11T06:40:02.643Z,5.69
2022-12-11T06:42:30.296Z,5.67
2022-12-11T06:44:59.731Z,5.65
2022-12-11T06:47:27.393Z,5.61
2022-12-11T06:49:54.544Z,5.59
2022-12-11T06:52:24.329Z,5.65
2022-12-11T06:54:51.396Z,5.64
2022-12-11T06:57:18.120Z,5.61
2022-12-11T06:59:45.364Z,5.54
2022-12-11T07:02:15.934Z,5.55
2022-12-11T07:04:43.352Z,5.55
2022-12-11T07:07:10.220Z,5.60
2022-12-11T07:09:38.485Z,5.63
2022-12-11T07:12:05.393Z,5.60
2022-12-11T07:14:32.572Z,5.54
2022-12-11T07:16:59.431Z,5.49
2022-12-11T07:19:26.684Z,5.50
2022-12-11T07:21:53.445Z,5.39
2022-12-11T07:24:20.459Z,5.38
2022-12-11T07:26:47.243Z,5.41
2022-12-11T07:29:14.280Z,5.46
2022-12-11T07:31:41.100Z,5.44
2022-12-11T07:34:08.164Z,5.45
2022-12-11T07:36:34.987Z,5.48
2022-12-11T07:39:02.138Z,5.50
2022-12-11T07:41:28.930Z,5.50
2022-12-11T07:43:56.082Z,5.50
2022-12-11T07:46:24.171Z,5.41
2022-12-11T07:48:51.259Z,5.36
2022-12-11T07:51:19.859Z,5.44
2022-12-11T07:53:48.053Z,5.47
2022-12-11T07:56:15.755Z,5.50
2022-12-11T07:58:42.839Z,5.52
2022-12-11T08:01:14.667Z,5.50
2022-12-11T08:03:42.193Z,5.44
2022-12-11T08:06:09.086Z,5.48
2022-12-11T08:08:36.162Z,5.34
2022-12-11T08:11:06.988Z,5.30
2022-12-11T08:13:34.040Z,5.30
2022-12-11T08:16:04.516Z,5.32
2022-12-11T08:18:32.619Z,5.33
2022-12-11T08:20:59.317Z,5.33
2022-12-11T08:23:26.478Z,5.28
2022-12-11T08:25:53.207Z,5.19
2022-12-11T08:28:20.266Z,5.22
2022-12-11T08:30:47.058Z,5.21
2022-12-11T08:33:14.355Z,5.25
2022-12-11T08:35:44.049Z,5.17
2022-12-11T08:38:11.108Z,5.23
2022-12-11T08:40:37.860Z,5.25
2022-12-11T08:43:04.876Z,5.25
2022-12-11T08:45:31.671Z,5.19
2022-12-11T08:47:59.608Z,5.23
2022-12-11T08:50:26.341Z,5.23
2022-12-11T08:52:53.877Z,5.25
2022-12-11T08:55:21.988Z,5.23
2022-12-11T08:57:49.106Z,5.21
2022-12-11T09:00:18.537Z,5.29
2022-12-11T09:02:45.694Z,5.26
2022-12-11T09:05:12.924Z,5.25
2022-12-11T09:07:40.118Z,5.14
2022-12-11T09:10:07.250Z,5.17
2022-12-11T09:12:34.744Z,5.18
2022-12-11T09:15:01.510Z,5.20
2022-12-11T09:17:28.561Z,5.22
2022-12-11T09:19:55.302Z,5.23
2022-12-11T09:22:22.451Z,5.24
2022-12-11T09:24:49.231Z,5.19
2022-12-11T09:27:16.330Z,5.25
2022-12-11T09:29:43.065Z,5.25
2022-12-11T09:32:10.190Z,5.20
2022-12-11T09:34:36.973Z,5.20
2022-12-11T09:37:04.030Z,5.20
2022-12-11T09:39:30.735Z,5.24
2022-12-11T09:42:13.999Z,5.20
2022-12-11T09:44:46.017Z,5.16
2022-12-11T09:47:35.889Z,5.18
2022-12-11T09:50:19.936Z,5.18
2022-12-11T09:52:47.034Z,5.13
2022-12-11T09:55:16.800Z,5.14
2022-12-11T09:58:02.019Z,5.00
2022-12-11T10:00:31.666Z,5.05
2022-12-11T10:03:04.480Z,5.06
2022-12-11T10:05:49.596Z,5.05
2022-12-11T10:08:47.758Z,5.01
2022-12-11T10:11:30.047Z,5.00
2022-12-11T10:14:08.789Z,5.06
2022-12-11T10:16:40.327Z,5.01
2022-12-11T10:19:29.342Z,5.04
2022-12-11T10:21:56.227Z,5.05
2022-12-11T10:25:13.031Z,5.09
2022-12-11T10:27:40.360Z,5.12
2022-12-11T10:30:21.684Z,5.08
2022-12-11T10:33:02.098Z,5.13
2022-12-11T10:35:55.969Z,5.11
2022-12-11T10:38:38.707Z,5.11
2022-12-11T10:41:21.063Z,5.10
2022-12-11T10:43:49.479Z,5.11
2022-12-11T10:46:17.778Z,5.15
2022-12-11T10:48:58.416Z,5.14
2022-12-11T10:51:36.157Z,5.12
2022-12-11T10:54:08.627Z,5.07
2022-12-11T10:56:36.022Z,5.07
2022-12-11T10:59:02.967Z,5.09
2022-12-11T11:01:31.486Z,5.12
2022-12-11T11:04:06.734Z,5.13
2022-12-11T11:06:33.820Z,5.13
2022-12-11T11:09:01.316Z,5.20
2022-12-11T11:11:34.318Z,5.18
2022-12-11T11:14:18.587Z,5.13
2022-12-11T11:16:47.123Z,5.17
2022-12-11T11:19:34.131Z,5.06
2022-12-11T11:22:03.079Z,5.08
2022-12-11T11:24:34.636Z,5.06
2022-12-11T11:27:13.286Z,5.10
2022-12-11T11:29:40.559Z,5.10
2022-12-11T11:32:20.595Z,5.21
2022-12-11T11:34:47.410Z,5.17
2022-12-11T11:37:25.235Z,5.12
2022-12-11T11:39:53.222Z,5.09
2022-12-11T11:42:29.903Z,5.02
2022-12-11T11:45:02.298Z,5.02
2022-12-11T11:47:32.038Z,5.01
2022-12-11T11:50:04.450Z,5.04
2022-12-11T11:52:44.287Z,5.06
2022-12-11T11:55:21.647Z,5.03
2022-12-11T11:57:58.093Z,5.04
2022-12-11T12:00:31.925Z,5.07
2022-12-11T12:03:03.033Z,5.02
2022-12-11T12:05:39.447Z,5.00
2022-12-11T12:08:09.655Z,5.00
2022-12-11T12:11:15.425Z,4.96
2022-12-11T12:13:49.584Z,4.99
2022-12-11T12:16:52.787Z,5.05
2022-12-11T12:19:23.636Z,5.11
2022-12-11T12:21:52.199Z,5.06
2022-12-11T12:24:41.330Z,5.08
2022-12-11T12:27:50.558Z,5.12
2022-12-11T12:30:16.131Z,5.08
2022-12-11T12:33:05.734Z,5.08
2022-12-11T12:35:36.224Z,5.01
2022-12-11T12:38:25.780Z,5.01
2022-12-11T12:41:14.170Z,5.04
2022-12-11T12:44:03.540Z,4.94
2022-12-11T12:46:43.545Z,5.00
2022-12-11T12:49:19.567Z,4.94
2022-12-11T12:51:46.627Z,5.01
2022-12-11T12:54:15.699Z,4.98
2022-12-11T12:56:45.128Z,4.97
2022-12-11T12:59:23.019Z,5.04
2022-12-11T13:01:52.449Z,5.10
2022-12-11T13:07:31.210Z,5.00
2022-12-11T13:10:01.486Z,5.05
2022-12-11T13:12:42.595Z,4.97
2022-12-11T13:15:24.871Z,5.03
2022-12-11T13:17:52.044Z,5.07
2022-12-11T13:20:20.479Z,5.04
2022-12-11T13:22:49.726Z,5.01
2022-12-11T13:25:27.279Z,4.99
2022-12-11T13:28:07.870Z,4.99
2022-12-11T13:30:34.974Z,5.00
2022-12-11T13:33:06.989Z,4.96
2022-12-11T13:35:34.301Z,5.00
2022-12-11T13:38:08.797Z,5.00
2022-12-11T13:40:39.117Z,4.95
2022-12-11T13:43:27.853Z,5.01
2022-12-11T13:45:59.505Z,4.88
2022-12-11T13:48:41.201Z,4.90
2022-12-11T13:51:07.969Z,4.87
2022-12-11T13:53:35.022Z,4.89
2022-12-11T13:56:06.717Z,4.85
2022-12-11T13:58:39.874Z,4.87
2022-12-11T14:01:17.263Z,4.79
2022-12-11T14:04:03.391Z,4.87
2022-12-11T14:06:30.041Z,4.87
2022-12-11T14:08:58.550Z,4.84
2022-12-11T14:11:28.750Z,4.85
2022-12-11T14:13:57.358Z,4.86
2022-12-11T14:16:24.707Z,4.85
2022-12-11T14:18:51.834Z,4.81
2022-12-11T14:21:24.422Z,4.78
2022-12-11T14:23:53.642Z,4.81
2022-12-11T14:26:24.729Z,4.85
2022-12-11T14:28:51.992Z,4.81
2022-12-11T14:31:36.397Z,4.85
2022-12-11T14:34:15.949Z,4.88
2022-12-11T14:36:42.716Z,4.86
2022-12-11T14:39:42.265Z,4.79
2022-12-11T14:42:17.360Z,4.78
2022-12-11T14:44:55.081Z,4.72
2022-12-11T14:47:27.509Z,4.68
2022-12-11T14:50:06.378Z,4.66
2022-12-11T14:52:36.390Z,4.59
2022-12-11T14:55:07.433Z,4.62
2022-12-11T14:57:34.431Z,4.57
2022-12-11T15:00:01.587Z,4.51
2022-12-11T15:02:30.414Z,4.52
2022-12-11T15:05:04.074Z,4.63
2022-12-11T15:07:31.270Z,4.65
2022-12-11T15:09:58.035Z,4.68
2022-12-11T15:12:25.135Z,4.66
2022-12-11T15:15:00.902Z,4.65
2022-12-11T15:17:28.086Z,4.63
2022-12-11T15:19:57.070Z,4.64
2022-12-11T15:22:25.222Z,4.63
2022-12-11T15:24:53.023Z,4.64
2022-12-11T15:27:37.404Z,4.58
2022-12-11T15:30:26.781Z,4.63
2022-12-11T15:33:09.444Z,4.56
2022-12-11T15:35:36.466Z,4.54
2022-12-11T15:38:03.486Z,4.60
2022-12-11T15:40:30.257Z,4.67
2022-12-11T15:42:57.434Z,4.60
2022-12-11T15:45:28.521Z,4.62
2022-12-11T15:47:55.760Z,4.59
2022-12-11T15:50:27.045Z,4.60
2022-12-11T15:52:55.226Z,4.52
2022-12-11T15:55:22.842Z,4.52
2022-12-11T15:57:54.623Z,4.58
2022-12-11T16:00:21.803Z,4.58
2022-12-11T16:02:48.963Z,4.58
2022-12-11T16:05:16.323Z,4.60
2022-12-11T16:07:43.507Z,4.57
2022-12-11T16:10:15.333Z,4.50
2022-12-11T16:12:43.468Z,4.54
2022-12-11T16:15:17.459Z,4.51
2022-12-11T16:17:48.670Z,4.49
2022-12-11T16:20:15.545Z,4.52
2022-12-11T16:22:42.615Z,4.52
2022-12-11T16:25:09.805Z,4.52
2022-12-11T16:27:37.783Z,4.55
2022-12-11T16:30:05.186Z,4.53
2022-12-11T16:32:32.648Z,4.49
2022-12-11T16:35:02.411Z,4.49
2022-12-11T16:37:29.497Z,4.45
2022-12-11T16:39:56.330Z,4.50
2022-12-11T16:42:23.592Z,4.50
2022-12-11T16:44:50.402Z,4.53
2022-12-11T16:47:17.415Z,4.54
2022-12-11T16:49:44.209Z,4.52
2022-12-11T16:52:11.305Z,4.49
2022-12-11T16:54:38.013Z,4.53
2022-12-11T16:57:05.107Z,4.53
2022-12-11T16:59:36.811Z,4.53
2022-12-11T17:02:05.093Z,4.48
2022-12-11T17:04:32.638Z,4.50
2022-12-11T17:06:59.685Z,4.43
2022-12-11T17:09:26.377Z,4.50
2022-12-11T17:11:53.486Z,4.49
2022-12-11T17:14:20.378Z,4.47
2022-12-11T17:16:48.166Z,4.49
2022-12-11T17:19:15.250Z,4.47
2022-12-11T17:21:45.807Z,4.46
2022-12-11T17:24:15.513Z,4.48
2022-12-11T17:26:42.679Z,4.49
2022-12-11T17:29:12.625Z,4.50
2022-12-11T17:31:39.885Z,4.44
2022-12-11T17:34:06.671Z,4.40
2022-12-11T17:36:33.748Z,4.38
2022-12-11T17:39:00.443Z,4.39
2022-12-11T17:41:27.616Z,4.40
2022-12-11T17:43:54.411Z,4.46
2022-12-11T17:46:21.601Z,4.43
2022-12-11T17:48:48.714Z,4.40
2022-12-11T17:51:23.961Z,4.36
2022-12-11T17:53:51.687Z,4.30
2022-12-11T17:56:18.918Z,4.34
2022-12-11T17:58:45.798Z,4.38
2022-12-11T18:01:13.241Z,4.42
2022-12-11T18:03:40.198Z,4.41
2022-12-11T18:06:09.999Z,4.34
2022-12-11T18:08:36.896Z,4.35
2022-12-11T18:11:05.893Z,4.35
2022-12-11T18:13:32.764Z,4.37
2022-12-11T18:16:04.293Z,4.37
2022-12-11T18:18:31.316Z,4.36
2022-12-11T18:20:58.553Z,4.37
2022-12-11T18:23:25.379Z,4.38
2022-12-11T18:25:52.621Z,4.35
2022-12-11T18:28:19.505Z,4.33
2022-12-11T18:30:46.914Z,4.30
2022-12-11T18:33:13.792Z,4.33
2022-12-11T18:35:41.325Z,4.25
2022-12-11T18:38:08.345Z,4.26
2022-12-11T18:40:35.587Z,4.27
2022-12-11T18:43:02.458Z,4.32
2022-12-11T18:45:30.317Z,4.34
2022-12-11T18:47:57.210Z,4.26
2022-12-11T18:50:24.225Z,4.24
2022-12-11T18:52:54.850Z,4.21
2022-12-11T18:55:22.015Z,4.21
2022-12-11T18:57:48.774Z,4.13
2022-12-11T19:00:16.866Z,4.12
2022-12-11T19:03:05.860Z,4.12
2022-12-11T19:06:08.582Z,4.13
2022-12-11T19:12:09.954Z,4.19
2022-12-11T19:14:37.162Z,4.22
2022-12-11T19:17:04.004Z,4.23
2022-12-11T19:19:31.040Z,4.23
2022-12-11T19:21:57.752Z,4.22
2022-12-11T19:24:24.970Z,4.23
2022-12-11T19:26:51.742Z,4.23
2022-12-11T19:29:34.494Z,4.16
2022-12-11T19:32:01.757Z,4.18
2022-12-11T19:34:28.836Z,4.20
2022-12-11T19:36:55.690Z,4.20
2022-12-11T19:39:22.728Z,4.19
2022-12-11T19:41:49.538Z,4.14
2022-12-11T19:44:16.720Z,4.11
2022-12-11T19:46:43.961Z,4.14
2022-12-11T19:49:11.394Z,4.12
2022-12-11T19:51:38.997Z,4.11
2022-12-11T19:54:07.284Z,4.16
2022-12-11T19:56:34.400Z,4.14
2022-12-11T19:59:02.917Z,4.14
2022-12-11T20:01:31.165Z,4.15
2022-12-11T20:04:00.104Z,4.13
2022-12-11T20:06:30.989Z,4.15
2022-12-11T20:08:58.141Z,4.13
2022-12-11T20:11:24.937Z,4.18
2022-12-11T20:13:52.092Z,4.18
2022-12-11T20:16:33.334Z,4.21
2022-12-11T20:19:06.557Z,4.22
2022-12-11T20:21:34.019Z,4.24
2022-12-11T20:24:01.061Z,4.19
2022-12-11T20:26:29.642Z,4.22
2022-12-11T20:28:56.638Z,4.22
2022-12-11T20:31:24.490Z,4.20
2022-12-11T20:33:52.401Z,4.21
2022-12-11T20:36:19.956Z,4.24
2022-12-11T20:38:47.174Z,4.23
2022-12-11T20:41:15.458Z,4.22
2022-12-11T20:43:42.547Z,4.21
2022-12-11T20:46:10.487Z,4.19
2022-12-11T20:48:37.780Z,4.23
2022-12-11T20:51:05.219Z,4.23
2022-12-11T20:53:32.284Z,4.23
2022-12-11T20:55:59.122Z,4.28
2022-12-11T20:58:26.232Z,4.27
2022-12-11T21:00:53.131Z,4.26
2022-12-11T21:03:20.234Z,4.29
2022-12-11T21:05:47.034Z,4.30
2022-12-11T21:08:14.123Z,4.30
2022-12-11T21:10:42.013Z,4.28
2022-12-11T21:13:09.268Z,4.28
2022-12-11T21:15:39.241Z,4.29
2022-12-11T21:18:07.236Z,4.31
2022-12-11T21:20:34.112Z,4.30
2022-12-11T21:23:01.553Z,4.27
2022-12-11T21:25:28.292Z,4.29
2022-12-11T21:27:55.342Z,4.28
2022-12-11T21:30:22.252Z,4.27
2022-12-11T21:32:49.304Z,4.31
2022-12-11T21:35:16.649Z,4.32
2022-12-11T21:37:43.791Z,4.30
2022-12-11T21:40:11.148Z,4.33
2022-12-11T21:42:38.216Z,4.29
2022-12-11T21:47:53.276Z,4.31
2022-12-11T21:50:20.035Z,4.29
2022-12-11T21:52:47.539Z,4.31
2022-12-11T21:55:14.565Z,4.31
2022-12-11T21:57:41.679Z,4.33
2022-12-11T22:00:09.535Z,4.33
2022-12-11T22:02:40.802Z,4.32
2022-12-11T22:05:09.135Z,4.35
2022-12-11T22:07:36.407Z,4.33
2022-12-11T22:10:04.145Z,4.34
2022-12-11T22:12:31.243Z,4.33
2022-12-11T22:14:57.999Z,4.34
2022-12-11T22:17:25.086Z,4.31
2022-12-11T22:19:54.663Z,4.33
2022-12-11T22:22:21.686Z,4.31
2022-12-11T22:24:48.442Z,4.33
2022-12-11T22:27:20.425Z,4.31
2022-12-11T22:29:50.162Z,4.33
2022-12-11T22:32:17.169Z,4.35
2022-12-11T22:34:43.967Z,4.34
2022-12-11T22:37:11.107Z,4.34
2022-12-11T22:39:37.867Z,4.35
2022-12-11T22:42:04.938Z,4.33
2022-12-11T22:44:31.685Z,4.33
2022-12-11T22:46:58.698Z,4.36
2022-12-11T22:49:25.438Z,4.33
2022-12-11T22:51:52.519Z,4.34
2022-12-11T22:54:19.655Z,4.34
2022-12-11T22:56:46.788Z,4.34
2022-12-11T22:59:13.515Z,4.31
2022-12-11T23:01:40.756Z,4.32
2022-12-11T23:04:07.557Z,4.34
2022-12-11T23:06:34.650Z,4.31
2022-12-11T23:09:01.498Z,4.35
2022-12-11T23:11:31.123Z,4.35
2022-12-11T23:13:58.240Z,4.34
2022-12-11T23:16:25.880Z,4.34
2022-12-11T23:18:53.359Z,4.36
2022-12-11T23:21:21.702Z,4.37
2022-12-11T23:23:48.743Z,4.35
2022-12-11T23:26:15.951Z,4.37
2022-12-11T23:28:42.642Z,4.36
2022-12-11T23:31:09.815Z,4.34
2022-12-11T23:33:36.916Z,4.35
2022-12-11T23:36:04.388Z,4.34
2022-12-11T23:38:31.182Z,4.34
2022-12-11T23:41:01.713Z,4.37
2022-12-11T23:43:28.432Z,4.36
2022-12-11T23:45:55.572Z,4.36
2022-12-11T23:48:22.521Z,4.36
2022-12-11T23:50:49.548Z,4.37
2022-12-11T23:53:16.243Z,4.38
2022-12-11T23:55:44.159Z,4.39
2022-12-11T23:58:11.088Z,4.39
